Time;durP1;ratioP1;P1;durP2;ratioP2;P2;SDS_P1;SDS_P2;PMS_P1;PMS_P2;Temp;Humidity;BMP_temperature;BMP_pressure;BME280_temperature;BME280_humidity;BME280_pressure;Samples;Min_cycle;Max_cycle;Signal;HPM_P1;HPM_P2
2024/02/27 00:02:21;;;;;;;8.45;5.68;;;;;;;;;;5051292;28;20470;-59
2024/02/27 00:04:49;;;;;;;9.38;5.70;;;;;;;;;;5052523;28;20529;-59
2024/02/27 00:07:15;;;;;;;10.50;6.55;;;;;;;;;;5056775;28;20131;-60
2024/02/27 00:09:43;;;;;;;9.80;6.07;;;;;;;;;;5057817;28;20083;-56
2024/02/27 00:12:12;;;;;;;9.13;6.40;;;;;;;;;;5055910;28;20036;-57
2024/02/27 00:14:39;;;;;;;8.93;5.80;;;;;;;;;;5054768;28;20045;-58
2024/02/27 00:17:06;;;;;;;11.18;6.43;;;;;;;;;;5054609;28;20045;-58
2024/02/27 00:19:32;;;;;;;10.23;5.55;;;;;;;;;;5051696;28;20045;-56
2024/02/27 00:22:00;;;;;;;9.27;5.53;;;;;;;;;;5055260;28;20125;-58
2024/02/27 00:24:27;;;;;;;8.77;5.60;;;;;;;;;;5053767;28;20095;-58
2024/02/27 00:26:54;;;;;;;9.73;6.10;;;;;;;;;;5056675;28;20106;-59
2024/02/27 00:29:21;;;;;;;9.88;6.57;;;;;;;;;;5051453;28;20041;-58
2024/02/27 00:31:48;;;;;;;9.50;6.68;;;;;;;;;;5057324;28;20053;-61
2024/02/27 00:34:15;;;;;;;9.02;6.30;;;;;;;;;;5051509;28;20087;-58
2024/02/27 00:36:42;;;;;;;10.38;6.47;;;;;;;;;;5052722;28;20128;-60
2024/02/27 00:39:10;;;;;;;8.93;6.25;;;;;;;;;;5051532;28;20083;-55
2024/02/27 00:41:40;;;;;;;9.73;5.82;;;;;;;;;;5051346;28;20056;-59
2024/02/27 00:44:07;;;;;;;11.23;7.30;;;;;;;;;;5050931;28;20049;-58
2024/02/27 00:46:34;;;;;;;12.88;7.25;;;;;;;;;;5051329;28;20059;-59
2024/02/27 00:49:00;;;;;;;10.27;6.43;;;;;;;;;;5051658;28;20077;-59
2024/02/27 00:51:27;;;;;;;9.55;7.03;;;;;;;;;;5051263;28;20523;-56
2024/02/27 00:53:54;;;;;;;10.52;6.32;;;;;;;;;;5051005;28;20516;-58
2024/02/27 00:56:22;;;;;;;11.10;6.70;;;;;;;;;;5051335;28;20068;-58
2024/02/27 00:58:49;;;;;;;12.93;6.25;;;;;;;;;;5051637;28;20136;-59
2024/02/27 01:01:16;;;;;;;11.05;6.82;;;;;;;;;;5051477;28;20538;-59
2024/02/27 01:03:43;;;;;;;10.60;6.32;;;;;;;;;;5044576;28;20055;-59
2024/02/27 01:06:10;;;;;;;10.25;6.47;;;;;;;;;;5050738;28;20487;-58
2024/02/27 01:08:36;;;;;;;10.80;7.13;;;;;;;;;;5050970;28;20040;-62
2024/02/27 01:11:03;;;;;;;11.50;6.57;;;;;;;;;;5051508;28;20459;-59
2024/02/27 01:13:31;;;;;;;12.35;7.22;;;;;;;;;;5052763;28;20041;-59
2024/02/27 01:15:58;;;;;;;10.80;7.10;;;;;;;;;;5055757;28;20049;-58
2024/02/27 01:18:25;;;;;;;11.25;6.88;;;;;;;;;;5055152;28;20080;-60
2024/02/27 01:20:51;;;;;;;11.48;6.93;;;;;;;;;;5055018;28;20049;-61
2024/02/27 01:23:19;;;;;;;10.70;7.07;;;;;;;;;;5054964;28;20428;-57
2024/02/27 01:25:46;;;;;;;11.40;6.60;;;;;;;;;;5054901;28;20049;-56
2024/02/27 01:28:13;;;;;;;9.82;6.55;;;;;;;;;;5056057;28;20042;-60
2024/02/27 01:30:41;;;;;;;10.65;7.15;;;;;;;;;;5058895;28;20096;-56
2024/02/27 01:33:08;;;;;;;11.48;7.35;;;;;;;;;;5049106;28;20045;-59
2024/02/27 01:35:35;;;;;;;10.73;7.03;;;;;;;;;;5052496;28;20080;-53
2024/02/27 01:38:02;;;;;;;11.80;6.88;;;;;;;;;;5050766;28;20049;-59
2024/02/27 01:40:29;;;;;;;12.80;7.88;;;;;;;;;;5055453;28;20120;-57
2024/02/27 01:42:55;;;;;;;12.63;7.28;;;;;;;;;;5054337;28;20136;-58
2024/02/27 01:45:22;;;;;;;11.40;7.65;;;;;;;;;;5054669;28;20087;-59
2024/02/27 01:47:52;;;;;;;12.43;7.40;;;;;;;;;;5054333;28;20150;-58
2024/02/27 01:50:20;;;;;;;12.65;7.55;;;;;;;;;;5048617;28;20132;-59
2024/02/27 01:52:47;;;;;;;11.35;6.97;;;;;;;;;;5048682;28;20052;-57
2024/02/27 01:55:15;;;;;;;13.07;7.60;;;;;;;;;;5047891;28;20133;-58
2024/02/27 01:57:42;;;;;;;10.52;7.40;;;;;;;;;;5050175;28;20041;-58
2024/02/27 02:00:11;;;;;;;9.77;6.70;;;;;;;;;;5051618;28;20041;-59
2024/02/27 02:02:39;;;;;;;13.07;8.23;;;;;;;;;;5050811;28;20052;-59
2024/02/27 02:05:07;;;;;;;11.43;7.07;;;;;;;;;;5050926;28;20053;-53
2024/02/27 02:07:35;;;;;;;11.95;7.45;;;;;;;;;;5052033;28;20464;-53
2024/02/27 02:10:02;;;;;;;11.52;7.53;;;;;;;;;;5048451;28;20065;-51
2024/02/27 02:12:29;;;;;;;11.63;7.90;;;;;;;;;;5053875;28;20527;-54
2024/02/27 02:14:56;;;;;;;10.57;7.00;;;;;;;;;;5055447;28;20084;-52
2024/02/27 02:17:22;;;;;;;11.63;8.00;;;;;;;;;;5056680;28;20284;-54
2024/02/27 02:19:49;;;;;;;12.50;7.70;;;;;;;;;;5053809;28;20076;-56
2024/02/27 02:22:17;;;;;;;12.05;7.10;;;;;;;;;;5053916;28;20129;-56
2024/02/27 02:24:44;;;;;;;11.18;7.50;;;;;;;;;;5050236;28;20072;-53
2024/02/27 02:27:15;;;;;;;14.50;8.07;;;;;;;;;;5047546;28;20049;-54
2024/02/27 02:29:42;;;;;;;12.27;8.20;;;;;;;;;;5053406;28;20493;-53
2024/02/27 02:32:09;;;;;;;12.48;7.75;;;;;;;;;;5054631;28;20124;-56
2024/02/27 02:34:35;;;;;;;11.55;7.47;;;;;;;;;;5047309;28;20137;-56
2024/02/27 02:37:02;;;;;;;11.82;7.68;;;;;;;;;;5052232;28;20173;-55
2024/02/27 02:39:30;;;;;;;11.00;7.38;;;;;;;;;;5050876;28;20076;-52
2024/02/27 02:41:57;;;;;;;12.27;7.45;;;;;;;;;;5047139;28;20128;-52
2024/02/27 02:44:24;;;;;;;13.57;7.80;;;;;;;;;;5052785;28;20479;-55
2024/02/27 02:46:50;;;;;;;12.77;8.02;;;;;;;;;;5052657;28;20079;-52
2024/02/27 02:49:17;;;;;;;10.82;7.45;;;;;;;;;;5052432;28;20472;-54
2024/02/27 02:51:44;;;;;;;11.57;7.45;;;;;;;;;;5046480;28;20526;-53
2024/02/27 02:54:10;;;;;;;14.20;7.95;;;;;;;;;;5052835;28;20098;-54
2024/02/27 02:56:39;;;;;;;12.43;7.35;;;;;;;;;;5051893;28;20080;-52
2024/02/27 02:59:05;;;;;;;13.43;7.93;;;;;;;;;;5051539;28;20080;-52
2024/02/27 03:01:32;;;;;;;13.68;7.85;;;;;;;;;;5052562;28;20080;-54
2024/02/27 03:03:59;;;;;;;11.25;7.25;;;;;;;;;;5052619;28;20041;-54
2024/02/27 03:06:25;;;;;;;13.43;7.60;;;;;;;;;;5051297;28;20041;-56
2024/02/27 03:08:52;;;;;;;11.95;7.10;;;;;;;;;;5053176;28;20083;-53
2024/02/27 03:11:19;;;;;;;10.98;7.25;;;;;;;;;;5052915;28;20080;-55
2024/02/27 03:13:47;;;;;;;11.70;7.10;;;;;;;;;;5052105;28;20052;-55
2024/02/27 03:16:15;;;;;;;11.02;7.50;;;;;;;;;;5052835;28;20084;-56
2024/02/27 03:18:42;;;;;;;11.05;7.35;;;;;;;;;;5052737;28;20073;-55
2024/02/27 03:21:09;;;;;;;11.23;7.65;;;;;;;;;;5051925;28;20048;-54
2024/02/27 03:23:35;;;;;;;12.48;7.63;;;;;;;;;;5051977;28;20083;-52
2024/02/27 03:26:02;;;;;;;13.50;8.00;;;;;;;;;;5051436;28;20106;-55
2024/02/27 03:28:29;;;;;;;12.13;7.95;;;;;;;;;;5050871;28;20045;-54
2024/02/27 03:30:57;;;;;;;13.88;8.65;;;;;;;;;;5051915;28;20102;-54
2024/02/27 03:33:23;;;;;;;11.75;8.18;;;;;;;;;;5051680;28;20080;-52
2024/02/27 03:35:50;;;;;;;12.18;8.63;;;;;;;;;;5049733;28;20132;-53
2024/02/27 03:38:17;;;;;;;10.35;6.95;;;;;;;;;;5047131;28;20132;-51
2024/02/27 03:40:43;;;;;;;12.73;8.38;;;;;;;;;;5042767;28;20511;-51
2024/02/27 03:43:10;;;;;;;12.63;7.35;;;;;;;;;;5052384;28;20099;-52
2024/02/27 03:45:37;;;;;;;11.82;7.65;;;;;;;;;;5051954;28;20095;-54
2024/02/27 03:48:06;;;;;;;13.55;8.50;;;;;;;;;;5050713;28;20120;-50
2024/02/27 03:50:32;;;;;;;13.95;7.97;;;;;;;;;;5052005;28;20485;-51
2024/02/27 03:52:59;;;;;;;12.10;7.88;;;;;;;;;;5051089;28;20087;-51
2024/02/27 03:55:26;;;;;;;12.07;8.73;;;;;;;;;;5049734;28;20123;-50
2024/02/27 03:57:52;;;;;;;12.93;9.07;;;;;;;;;;5051816;28;20080;-55
2024/02/27 04:00:20;;;;;;;14.50;8.13;;;;;;;;;;5045691;28;20063;-53
2024/02/27 04:02:46;;;;;;;12.15;8.18;;;;;;;;;;5050165;28;20088;-54
2024/02/27 04:05:15;;;;;;;14.32;9.02;;;;;;;;;;5048182;28;20045;-52
2024/02/27 04:07:42;;;;;;;15.07;9.02;;;;;;;;;;5047575;28;20048;-56
2024/02/27 04:10:09;;;;;;;14.43;9.00;;;;;;;;;;5046859;28;20073;-52
2024/02/27 04:12:35;;;;;;;13.70;8.65;;;;;;;;;;5048357;28;20099;-53
2024/02/27 04:15:02;;;;;;;14.27;8.63;;;;;;;;;;5051108;28;20099;-51
2024/02/27 04:17:29;;;;;;;13.45;8.63;;;;;;;;;;5051614;28;20079;-54
2024/02/27 04:19:57;;;;;;;15.07;8.13;;;;;;;;;;5050433;28;20053;-54
2024/02/27 04:22:25;;;;;;;13.48;8.25;;;;;;;;;;5051204;28;20453;-55
2024/02/27 04:24:52;;;;;;;12.70;8.20;;;;;;;;;;5046196;28;20055;-52
2024/02/27 04:27:19;;;;;;;14.45;7.97;;;;;;;;;;5051083;28;20126;-56
2024/02/27 04:29:45;;;;;;;13.80;7.90;;;;;;;;;;5049669;28;20072;-52
2024/02/27 04:32:13;;;;;;;12.60;7.93;;;;;;;;;;5051302;28;20128;-52
2024/02/27 04:34:42;;;;;;;13.60;8.45;;;;;;;;;;5049201;28;20048;-52
2024/02/27 04:37:09;;;;;;;11.77;8.05;;;;;;;;;;5051568;28;20091;-55
2024/02/27 04:39:37;;;;;;;14.15;8.70;;;;;;;;;;5049469;28;20077;-52
2024/02/27 04:42:04;;;;;;;14.68;8.80;;;;;;;;;;5047572;28;20068;-54
2024/02/27 04:44:30;;;;;;;15.00;9.27;;;;;;;;;;5048694;28;20072;-54
2024/02/27 04:46:57;;;;;;;11.68;7.60;;;;;;;;;;5051163;28;20531;-53
2024/02/27 04:49:24;;;;;;;13.25;8.38;;;;;;;;;;5049355;28;20191;-55
2024/02/27 04:51:50;;;;;;;15.13;8.45;;;;;;;;;;5051133;28;20429;-53
2024/02/27 04:54:17;;;;;;;13.07;8.45;;;;;;;;;;5050757;28;20091;-52
2024/02/27 04:56:45;;;;;;;13.07;8.27;;;;;;;;;;5044451;28;20125;-52
2024/02/27 04:59:12;;;;;;;12.07;8.45;;;;;;;;;;5050857;28;20476;-52
2024/02/27 05:01:38;;;;;;;14.65;8.70;;;;;;;;;;5046901;28;20099;-55
2024/02/27 05:04:05;;;;;;;14.38;9.18;;;;;;;;;;5050629;28;20045;-54
2024/02/27 05:06:32;;;;;;;13.73;8.88;;;;;;;;;;5050436;28;20040;-51
2024/02/27 05:08:58;;;;;;;12.85;8.38;;;;;;;;;;5045410;28;20080;-57
2024/02/27 05:11:26;;;;;;;13.80;8.48;;;;;;;;;;5050114;28;20573;-52
2024/02/27 05:13:54;;;;;;;14.60;8.52;;;;;;;;;;5043784;28;20053;-53
2024/02/27 05:16:21;;;;;;;14.40;9.05;;;;;;;;;;5050234;28;20463;-53
2024/02/27 05:18:48;;;;;;;14.60;8.77;;;;;;;;;;5048502;28;20140;-58
2024/02/27 05:21:15;;;;;;;15.20;8.88;;;;;;;;;;5046334;28;20053;-51
2024/02/27 05:23:41;;;;;;;14.70;8.88;;;;;;;;;;5049893;28;20053;-55
2024/02/27 05:26:08;;;;;;;13.15;8.80;;;;;;;;;;5049870;28;20076;-54
2024/02/27 05:28:36;;;;;;;14.50;8.75;;;;;;;;;;5049677;28;20132;-49
2024/02/27 05:31:22;;;;;;;13.55;9.00;;;;;;;;;;5050417;28;20088;-52
2024/02/27 05:33:49;;;;;;;15.38;9.70;;;;;;;;;;5039249;28;20045;-50
2024/02/27 05:36:16;;;;;;;15.02;9.35;;;;;;;;;;5048603;28;20128;-51
2024/02/27 05:38:43;;;;;;;17.33;9.27;;;;;;;;;;5050220;28;20128;-54
2024/02/27 05:41:10;;;;;;;15.38;8.98;;;;;;;;;;5047558;28;20053;-52
2024/02/27 05:43:36;;;;;;;15.13;9.75;;;;;;;;;;5048019;28;20499;-49
2024/02/27 05:46:05;;;;;;;16.25;9.23;;;;;;;;;;5039383;28;20091;-53
2024/02/27 05:48:32;;;;;;;16.02;9.18;;;;;;;;;;5049219;28;20045;-50
2024/02/27 05:50:59;;;;;;;16.48;9.68;;;;;;;;;;5050047;28;20443;-52
2024/02/27 05:53:28;;;;;;;17.52;10.20;;;;;;;;;;5045936;28;20088;-52
2024/02/27 05:55:55;;;;;;;17.23;9.88;;;;;;;;;;5048637;28;20057;-52
2024/02/27 05:58:23;;;;;;;17.15;10.48;;;;;;;;;;5048818;28;20080;-53
2024/02/27 06:00:50;;;;;;;16.25;10.05;;;;;;;;;;5053713;28;20053;-51
2024/02/27 06:03:18;;;;;;;18.40;10.02;;;;;;;;;;5051169;28;20056;-50
2024/02/27 06:05:45;;;;;;;18.30;10.63;;;;;;;;;;5050548;28;20215;-52
2024/02/27 06:08:13;;;;;;;17.83;10.27;;;;;;;;;;5052048;28;20041;-53
2024/02/27 06:10:40;;;;;;;20.80;10.68;;;;;;;;;;5045622;28;20148;-53
2024/02/27 06:13:07;;;;;;;16.02;9.27;;;;;;;;;;5046065;28;20052;-53
2024/02/27 06:15:34;;;;;;;19.15;10.88;;;;;;;;;;5046667;28;20045;-53
2024/02/27 06:18:00;;;;;;;16.42;9.52;;;;;;;;;;5052697;28;20474;-54
2024/02/27 06:23:13;;;;;;;18.63;10.93;;;;;;;;;;5051728;28;20055;-56
2024/02/27 06:25:39;;;;;;;18.65;11.02;;;;;;;;;;5048142;28;20411;-53
2024/02/27 06:28:06;;;;;;;19.63;11.25;;;;;;;;;;5049666;28;20125;-54
2024/02/27 06:30:33;;;;;;;19.23;10.85;;;;;;;;;;5053571;28;20083;-51
2024/02/27 06:32:59;;;;;;;21.73;11.25;;;;;;;;;;5052609;28;20088;-52
2024/02/27 06:35:27;;;;;;;19.95;11.95;;;;;;;;;;5050806;28;20076;-53
2024/02/27 06:37:55;;;;;;;19.15;11.32;;;;;;;;;;5052102;28;20068;-54
2024/02/27 06:40:22;;;;;;;23.85;11.63;;;;;;;;;;5048641;28;20049;-56
2024/02/27 06:42:49;;;;;;;19.52;10.25;;;;;;;;;;5053455;28;20562;-53
2024/02/27 06:45:16;;;;;;;20.75;11.82;;;;;;;;;;5046286;28;20073;-54
2024/02/27 06:47:42;;;;;;;19.83;11.35;;;;;;;;;;5046279;28;20045;-53
2024/02/27 06:50:10;;;;;;;22.80;12.15;;;;;;;;;;5053149;28;20045;-50
2024/02/27 06:52:37;;;;;;;20.50;11.27;;;;;;;;;;5047144;28;20056;-52
2024/02/27 06:55:06;;;;;;;20.02;11.27;;;;;;;;;;5050812;28;20372;-52
2024/02/27 06:57:33;;;;;;;19.23;11.60;;;;;;;;;;5048911;28;20084;-51
2024/02/27 07:00:00;;;;;;;23.88;12.80;;;;;;;;;;5053329;28;20405;-50
2024/02/27 07:02:26;;;;;;;19.20;12.63;;;;;;;;;;5053299;28;20505;-57
2024/02/27 07:04:53;;;;;;;21.45;11.73;;;;;;;;;;5052594;28;20182;-51
2024/02/27 07:07:21;;;;;;;22.38;12.48;;;;;;;;;;5048329;28;20491;-54
2024/02/27 07:09:47;;;;;;;19.55;11.45;;;;;;;;;;5052798;28;20532;-51
2024/02/27 07:12:15;;;;;;;20.98;11.48;;;;;;;;;;5050789;28;20095;-53
2024/02/27 07:14:43;;;;;;;20.10;12.20;;;;;;;;;;5051293;28;20098;-53
2024/02/27 07:17:10;;;;;;;19.58;11.35;;;;;;;;;;5059143;28;20049;-54
2024/02/27 07:19:37;;;;;;;20.35;11.93;;;;;;;;;;5050724;28;20074;-56
2024/02/27 07:22:05;;;;;;;19.67;10.82;;;;;;;;;;5053971;28;20469;-55
2024/02/27 07:24:31;;;;;;;19.35;11.38;;;;;;;;;;5053910;28;20049;-56
2024/02/27 07:26:58;;;;;;;21.02;11.63;;;;;;;;;;5053858;28;20477;-54
2024/02/27 07:29:26;;;;;;;23.30;12.20;;;;;;;;;;5052789;28;20076;-52
2024/02/27 07:31:53;;;;;;;20.23;12.40;;;;;;;;;;5052823;28;20530;-54
2024/02/27 07:34:21;;;;;;;20.52;11.77;;;;;;;;;;5050838;28;20087;-54
2024/02/27 07:36:48;;;;;;;21.88;12.10;;;;;;;;;;5056063;28;20055;-54
2024/02/27 07:39:15;;;;;;;23.88;12.13;;;;;;;;;;5054968;28;20041;-54
2024/02/27 07:41:42;;;;;;;21.08;11.90;;;;;;;;;;5056759;28;20463;-50
2024/02/27 07:44:09;;;;;;;19.38;11.65;;;;;;;;;;5049372;28;20132;-50
2024/02/27 07:46:37;;;;;;;23.25;12.35;;;;;;;;;;5045993;28;20417;-52
2024/02/27 07:49:04;;;;;;;24.58;13.00;;;;;;;;;;5051853;28;20045;-52
2024/02/27 07:51:31;;;;;;;22.27;11.90;;;;;;;;;;5052058;28;20049;-49
2024/02/27 07:53:59;;;;;;;22.33;12.68;;;;;;;;;;5041990;28;20132;-52
2024/02/27 07:56:27;;;;;;;24.52;12.90;;;;;;;;;;5048850;28;20049;-53
2024/02/27 07:58:56;;;;;;;21.13;11.75;;;;;;;;;;5050739;28;20049;-51
2024/02/27 08:01:24;;;;;;;21.90;11.57;;;;;;;;;;5052093;28;20072;-52
2024/02/27 08:03:53;;;;;;;24.73;13.93;;;;;;;;;;5052061;28;20054;-52
2024/02/27 08:06:19;;;;;;;23.05;12.65;;;;;;;;;;5052491;28;20080;-54
2024/02/27 08:08:46;;;;;;;23.33;11.68;;;;;;;;;;5060210;28;20147;-58
2024/02/27 08:11:14;;;;;;;22.25;12.35;;;;;;;;;;5054231;28;20048;-50
2024/02/27 08:13:41;;;;;;;23.48;12.65;;;;;;;;;;5047185;28;20135;-54
2024/02/27 08:16:08;;;;;;;24.90;13.43;;;;;;;;;;5046881;28;20067;-52
2024/02/27 08:18:35;;;;;;;24.02;13.88;;;;;;;;;;5047594;28;20477;-58
2024/02/27 08:21:03;;;;;;;23.50;13.45;;;;;;;;;;5052938;28;20520;-55
2024/02/27 08:23:30;;;;;;;24.35;12.52;;;;;;;;;;5051676;28;20140;-54
2024/02/27 08:25:57;;;;;;;21.55;12.57;;;;;;;;;;5053798;28;20129;-57
2024/02/27 08:28:23;;;;;;;24.70;12.05;;;;;;;;;;5050643;28;20507;-51
2024/02/27 08:30:50;;;;;;;18.73;11.65;;;;;;;;;;5055301;28;20128;-53
2024/02/27 08:33:17;;;;;;;26.08;12.43;;;;;;;;;;5048585;28;20052;-64
2024/02/27 08:35:43;;;;;;;24.90;13.25;;;;;;;;;;5053141;28;20137;-58
2024/02/27 08:38:11;;;;;;;21.67;11.35;;;;;;;;;;5051606;28;20476;-61
2024/02/27 08:40:38;;;;;;;24.08;14.27;;;;;;;;;;5050999;28;20089;-58
2024/02/27 08:43:05;;;;;;;22.45;12.65;;;;;;;;;;5052237;28;20137;-54
2024/02/27 08:45:31;;;;;;;24.58;13.30;;;;;;;;;;5056300;28;20133;-56
2024/02/27 08:47:58;;;;;;;23.45;13.50;;;;;;;;;;5052445;28;20259;-51
2024/02/27 08:50:25;;;;;;;22.80;12.40;;;;;;;;;;5050375;28;20127;-55
2024/02/27 08:52:52;;;;;;;20.63;12.82;;;;;;;;;;5053269;28;20059;-56
2024/02/27 08:55:21;;;;;;;25.55;13.30;;;;;;;;;;5046500;28;20099;-55
2024/02/27 08:57:47;;;;;;;21.90;13.77;;;;;;;;;;5043123;28;20041;-53
2024/02/27 09:00:16;;;;;;;21.50;11.50;;;;;;;;;;5050905;28;20179;-57
2024/02/27 09:02:42;;;;;;;20.85;11.93;;;;;;;;;;5053431;28;20058;-54
2024/02/27 09:05:09;;;;;;;26.63;12.70;;;;;;;;;;5049196;28;20077;-50
2024/02/27 09:07:39;;;;;;;24.23;12.90;;;;;;;;;;5050251;28;20475;-55
2024/02/27 09:10:08;;;;;;;24.30;13.45;;;;;;;;;;5050548;28;20071;-56
2024/02/27 09:12:36;;;;;;;20.58;11.75;;;;;;;;;;5049412;28;20076;-56
2024/02/27 09:15:03;;;;;;;22.30;12.93;;;;;;;;;;5049482;28;20109;-52
2024/02/27 09:17:31;;;;;;;21.92;12.63;;;;;;;;;;5049827;28;20091;-54
2024/02/27 09:19:58;;;;;;;22.40;11.25;;;;;;;;;;5054431;28;20090;-51
2024/02/27 09:22:24;;;;;;;25.00;11.43;;;;;;;;;;5051794;28;20060;-56
2024/02/27 09:24:51;;;;;;;22.50;12.10;;;;;;;;;;5051174;28;20428;-56
2024/02/27 09:27:20;;;;;;;21.73;12.25;;;;;;;;;;5054391;28;20075;-56
2024/02/27 09:29:48;;;;;;;20.67;12.75;;;;;;;;;;5049594;28;20519;-58
2024/02/27 09:32:16;;;;;;;21.95;12.02;;;;;;;;;;5052337;28;20132;-55
2024/02/27 09:34:43;;;;;;;21.08;11.68;;;;;;;;;;5054958;28;20072;-56
2024/02/27 09:37:11;;;;;;;20.50;12.35;;;;;;;;;;5054955;28;20428;-53
2024/02/27 09:39:38;;;;;;;20.15;10.90;;;;;;;;;;5057690;28;20052;-57
2024/02/27 09:42:10;;;;;;;20.30;10.70;;;;;;;;;;5056056;28;20061;-55
2024/02/27 09:44:39;;;;;;;18.20;10.77;;;;;;;;;;5054917;28;20135;-57
2024/02/27 09:47:08;;;;;;;19.20;10.80;;;;;;;;;;5057127;28;20519;-52
2024/02/27 09:49:38;;;;;;;18.23;11.10;;;;;;;;;;5054488;28;20076;-55
2024/02/27 09:52:07;;;;;;;20.93;11.63;;;;;;;;;;5061851;28;20055;-55
2024/02/27 09:54:35;;;;;;;18.98;10.93;;;;;;;;;;5054802;28;20119;-55
2024/02/27 09:57:04;;;;;;;22.05;11.77;;;;;;;;;;5052497;28;20063;-54
2024/02/27 09:59:31;;;;;;;19.55;10.60;;;;;;;;;;5052418;28;20076;-55
2024/02/27 10:02:05;;;;;;;19.70;10.75;;;;;;;;;;5054467;28;20059;-55
2024/02/27 10:04:35;;;;;;;18.13;10.82;;;;;;;;;;5055506;28;20505;-54
2024/02/27 10:07:05;;;;;;;20.87;11.83;;;;;;;;;;5047713;28;20126;-52
2024/02/27 10:09:36;;;;;;;19.15;11.57;;;;;;;;;;5058175;28;20088;-54
2024/02/27 10:12:03;;;;;;;20.58;12.25;;;;;;;;;;5057223;28;20102;-55
2024/02/27 10:14:31;;;;;;;22.10;12.18;;;;;;;;;;5058161;28;20066;-55
2024/02/27 10:16:58;;;;;;;22.58;10.85;;;;;;;;;;5059552;28;20467;-55
2024/02/27 10:19:27;;;;;;;19.98;11.07;;;;;;;;;;5052595;28;20582;-55
2024/02/27 10:21:55;;;;;;;20.90;10.95;;;;;;;;;;5051287;28;20080;-55
2024/02/27 10:24:23;;;;;;;19.13;10.93;;;;;;;;;;5051496;28;20124;-56
2024/02/27 10:26:54;;;;;;;18.52;11.13;;;;;;;;;;5051695;28;20399;-57
2024/02/27 10:29:22;;;;;;;23.40;11.82;;;;;;;;;;5049687;28;20060;-57
2024/02/27 10:31:50;;;;;;;20.38;11.55;;;;;;;;;;5052332;28;20045;-55
2024/02/27 10:34:17;;;;;;;20.48;11.57;;;;;;;;;;5055734;28;20143;-56
2024/02/27 10:36:43;;;;;;;18.90;10.40;;;;;;;;;;5059300;28;20132;-55
2024/02/27 10:39:12;;;;;;;17.75;10.95;;;;;;;;;;5056545;28;20041;-56
2024/02/27 10:41:39;;;;;;;17.52;10.63;;;;;;;;;;5057153;28;20048;-52
2024/02/27 10:44:07;;;;;;;20.52;11.00;;;;;;;;;;5053610;28;20045;-55
2024/02/27 10:46:35;;;;;;;21.63;11.38;;;;;;;;;;5056407;28;20044;-51
2024/02/27 10:49:02;;;;;;;18.50;11.00;;;;;;;;;;5051424;28;20045;-55
2024/02/27 10:51:29;;;;;;;20.63;10.77;;;;;;;;;;5050577;28;20064;-52
2024/02/27 10:53:57;;;;;;;18.42;10.55;;;;;;;;;;5052168;28;20049;-52
2024/02/27 10:56:26;;;;;;;18.20;11.23;;;;;;;;;;5051296;28;20045;-54
2024/02/27 10:58:54;;;;;;;17.10;11.10;;;;;;;;;;5051437;28;20049;-53
2024/02/27 11:01:22;;;;;;;22.10;11.75;;;;;;;;;;5051272;28;20045;-54
2024/02/27 11:03:51;;;;;;;16.70;9.77;;;;;;;;;;5049986;28;20072;-55
2024/02/27 11:06:21;;;;;;;18.17;10.88;;;;;;;;;;5051329;28;20488;-54
2024/02/27 11:08:51;;;;;;;18.63;10.57;;;;;;;;;;5048265;28;20152;-55
2024/02/27 11:11:18;;;;;;;19.60;11.32;;;;;;;;;;5051506;28;20091;-55
2024/02/27 11:13:49;;;;;;;21.08;12.48;;;;;;;;;;5050663;28;20107;-55
2024/02/27 11:16:20;;;;;;;19.38;10.82;;;;;;;;;;5051290;28;20076;-53
2024/02/27 11:18:51;;;;;;;17.63;11.05;;;;;;;;;;5051179;28;20090;-56
2024/02/27 11:21:20;;;;;;;22.50;11.13;;;;;;;;;;5051035;28;20057;-56
2024/02/27 11:23:47;;;;;;;17.48;10.38;;;;;;;;;;5050652;28;20049;-57
2024/02/27 11:26:15;;;;;;;20.63;11.75;;;;;;;;;;5049680;28;20132;-53
2024/02/27 11:28:42;;;;;;;17.98;10.38;;;;;;;;;;5050836;28;20053;-56
2024/02/27 11:31:11;;;;;;;19.52;11.23;;;;;;;;;;5050911;28;20072;-55
2024/02/27 11:33:47;;;;;;;17.27;9.82;;;;;;;;;;5049962;28;20479;-52
2024/02/27 11:36:13;;;;;;;16.30;9.63;;;;;;;;;;5050636;28;20053;-56
2024/02/27 11:38:43;;;;;;;16.98;10.07;;;;;;;;;;5050241;28;20132;-54
2024/02/27 11:41:15;;;;;;;17.27;10.90;;;;;;;;;;5057725;28;20041;-53
2024/02/27 11:43:46;;;;;;;16.33;9.93;;;;;;;;;;5049487;28;20084;-55
2024/02/27 11:46:36;;;;;;;18.88;9.50;;;;;;;;;;5052851;28;20049;-66
2024/02/27 11:49:04;;;;;;;;;;;;;;;;;;5055692;28;20057;-56
2024/02/27 11:51:33;;;;;;;16.50;9.98;;;;;;;;;;5049756;28;19930;-58
2024/02/27 11:54:00;;;;;;;16.38;9.48;;;;;;;;;;5054135;28;20084;-56
2024/02/27 11:56:27;;;;;;;17.60;9.63;;;;;;;;;;5054542;28;20790;-55
2024/02/27 11:58:54;;;;;;;15.65;10.40;;;;;;;;;;5063051;28;20048;-56
2024/02/27 12:01:23;;;;;;;17.08;9.25;;;;;;;;;;5052145;28;20080;-57
2024/02/27 12:03:51;;;;;;;17.30;11.15;;;;;;;;;;5057477;28;20055;-55
2024/02/27 12:06:18;;;;;;;17.48;11.10;;;;;;;;;;5054582;28;20075;-56
2024/02/27 12:08:46;;;;;;;16.83;9.82;;;;;;;;;;5054970;28;20118;-58
2024/02/27 12:11:13;;;;;;;17.63;10.25;;;;;;;;;;5058939;28;20431;-56
2024/02/27 12:13:40;;;;;;;14.23;9.82;;;;;;;;;;5053642;28;20057;-55
2024/02/27 12:16:07;;;;;;;16.70;10.05;;;;;;;;;;5056923;28;20090;-56
2024/02/27 12:18:34;;;;;;;16.45;10.10;;;;;;;;;;5051874;28;20041;-56
2024/02/27 12:21:02;;;;;;;16.65;9.60;;;;;;;;;;5051945;28;20070;-56
2024/02/27 12:23:30;;;;;;;17.17;10.25;;;;;;;;;;5054436;28;20469;-56
2024/02/27 12:25:58;;;;;;;17.27;9.73;;;;;;;;;;5055945;28;20567;-56
2024/02/27 12:28:25;;;;;;;16.00;9.77;;;;;;;;;;5055165;28;20139;-56
2024/02/27 12:30:53;;;;;;;15.95;9.38;;;;;;;;;;5055924;28;20080;-55
2024/02/27 12:33:20;;;;;;;16.05;9.77;;;;;;;;;;5061938;28;20048;-55
2024/02/27 12:35:46;;;;;;;14.40;8.70;;;;;;;;;;5051564;28;20045;-54
2024/02/27 12:38:15;;;;;;;15.07;9.10;;;;;;;;;;5054568;28;20501;-56
2024/02/27 12:40:42;;;;;;;15.90;9.38;;;;;;;;;;5055218;28;20441;-53
2024/02/27 12:43:09;;;;;;;14.95;9.18;;;;;;;;;;5049112;28;20049;-58
2024/02/27 12:45:37;;;;;;;13.57;8.88;;;;;;;;;;5048265;28;20139;-53
2024/02/27 12:48:04;;;;;;;16.63;9.85;;;;;;;;;;5051413;28;20130;-55
2024/02/27 12:50:31;;;;;;;12.35;7.85;;;;;;;;;;5049555;28;20152;-56
2024/02/27 12:52:59;;;;;;;15.63;9.35;;;;;;;;;;5058207;28;20080;-55
2024/02/27 12:55:27;;;;;;;14.68;9.20;;;;;;;;;;5057895;28;20046;-54
2024/02/27 12:57:55;;;;;;;14.45;8.38;;;;;;;;;;5055738;28;20135;-53
2024/02/27 13:00:22;;;;;;;14.10;7.47;;;;;;;;;;5049306;28;20128;-56
2024/02/27 13:02:53;;;;;;;13.00;7.45;;;;;;;;;;5047655;28;20084;-56
2024/02/27 13:05:20;;;;;;;;;;;;;;;;;;5055045;28;20045;-55
2024/02/27 13:07:47;;;;;;;17.08;9.02;;;;;;;;;;5056511;28;19928;-52
2024/02/27 13:10:16;;;;;;;14.30;8.75;;;;;;;;;;5060294;28;20570;-56
2024/02/27 13:12:44;;;;;;;14.63;8.60;;;;;;;;;;5055787;28;20147;-54
2024/02/27 13:15:11;;;;;;;14.05;8.85;;;;;;;;;;5058568;28;20716;-56
2024/02/27 13:17:38;;;;;;;18.25;9.98;;;;;;;;;;5061972;28;20104;-56
2024/02/27 13:20:06;;;;;;;15.57;8.50;;;;;;;;;;5060726;28;20778;-55
2024/02/27 13:22:32;;;;;;;14.02;9.05;;;;;;;;;;5065402;28;20481;-55
2024/02/27 13:24:59;;;;;;;16.23;10.27;;;;;;;;;;5056918;28;20072;-53
2024/02/27 13:27:26;;;;;;;16.02;9.80;;;;;;;;;;5061171;28;20049;-56
2024/02/27 13:29:54;;;;;;;16.52;10.32;;;;;;;;;;5062076;28;20852;-55
2024/02/27 13:32:20;;;;;;;18.58;10.75;;;;;;;;;;5063194;28;20040;-55
2024/02/27 13:34:48;;;;;;;17.13;10.77;;;;;;;;;;5060401;28;20110;-56
2024/02/27 13:37:14;;;;;;;17.17;10.30;;;;;;;;;;5056332;28;20095;-56
2024/02/27 13:39:41;;;;;;;19.55;10.55;;;;;;;;;;5053622;28;20464;-54
2024/02/27 13:42:08;;;;;;;19.70;10.57;;;;;;;;;;5042817;28;20254;-54
2024/02/27 13:44:35;;;;;;;22.80;11.65;;;;;;;;;;5056851;28;20095;-55
2024/02/27 13:47:03;;;;;;;15.52;9.75;;;;;;;;;;5050877;28;20042;-57
2024/02/27 13:49:30;;;;;;;17.85;11.15;;;;;;;;;;5053225;28;20070;-57
2024/02/27 13:51:57;;;;;;;19.88;11.00;;;;;;;;;;5055358;28;20073;-56
2024/02/27 13:54:23;;;;;;;17.42;10.15;;;;;;;;;;5040644;28;20037;-57
2024/02/27 13:56:50;;;;;;;15.75;10.30;;;;;;;;;;5045144;28;20401;-55
2024/02/27 13:59:17;;;;;;;19.60;12.20;;;;;;;;;;5053506;28;20074;-55
2024/02/27 14:01:44;;;;;;;17.48;11.10;;;;;;;;;;5052728;28;20140;-55
2024/02/27 14:04:12;;;;;;;19.73;12.60;;;;;;;;;;5052716;28;20483;-56
2024/02/27 14:06:38;;;;;;;21.60;12.45;;;;;;;;;;5058457;28;20095;-55
2024/02/27 14:09:05;;;;;;;19.98;11.27;;;;;;;;;;5056199;28;20099;-53
2024/02/27 14:11:32;;;;;;;19.30;11.98;;;;;;;;;;5062220;28;20072;-53
2024/02/27 14:13:59;;;;;;;19.05;11.35;;;;;;;;;;5055340;28;20529;-52
2024/02/27 14:16:27;;;;;;;18.90;11.85;;;;;;;;;;5055303;28;20475;-54
2024/02/27 14:18:54;;;;;;;17.38;11.23;;;;;;;;;;5058786;28;20123;-55
2024/02/27 14:21:22;;;;;;;18.70;11.98;;;;;;;;;;5058826;28;20076;-55
2024/02/27 14:23:49;;;;;;;18.67;11.45;;;;;;;;;;5051687;28;20091;-55
2024/02/27 14:26:16;;;;;;;16.35;11.10;;;;;;;;;;5054648;28;20059;-55
2024/02/27 14:28:42;;;;;;;19.10;10.88;;;;;;;;;;5051688;28;20411;-54
2024/02/27 14:31:09;;;;;;;20.38;13.38;;;;;;;;;;5056885;28;20485;-51